Time;durP1;ratioP1;P1;durP2;ratioP2;P2;SDS_P1;SDS_P2;PMS_P1;PMS_P2;Temp;Humidity;BMP_temperature;BMP_pressure;BME280_temperature;BME280_humidity;BME280_pressure;Samples;Min_cycle;Max_cycle;Signal;HPM_P1;HPM_P2
2023/02/25 00:02:37;;;;;;;23.90;16.50;;;8.30;90.10;;;;;;6299495;28;20461;-65
2023/02/25 00:05:41;;;;;;;25.90;15.97;;;8.40;90.40;;;;;;6299606;28;20480;-65
2023/02/25 00:08:46;;;;;;;22.10;15.10;;;8.30;90.40;;;;;;6299629;28;20484;-65
2023/02/25 00:11:50;;;;;;;29.47;17.20;;;8.30;90.30;;;;;;6312017;28;20467;-66
2023/02/25 00:14:53;;;;;;;21.33;15.70;;;8.30;90.40;;;;;;6326444;28;20475;-65
2023/02/25 00:17:56;;;;;;;23.70;16.93;;;8.20;90.50;;;;;;6325323;28;20479;-65
2023/02/25 00:21:03;;;;;;;24.90;17.10;;;8.10;90.50;;;;;;6329606;28;20936;-64
2023/02/25 00:24:07;;;;;;;25.07;16.37;;;8.10;90.50;;;;;;6336049;28;20468;-65
2023/02/25 00:27:20;;;;;;;22.43;17.57;;;8.10;90.60;;;;;;6336797;28;20460;-65
2023/02/25 00:30:23;;;;;;;23.50;15.80;;;8.00;90.70;;;;;;6333308;28;20476;-66
2023/02/25 00:33:26;;;;;;;25.00;16.57;;;8.00;90.70;;;;;;6335627;28;20472;-65
2023/02/25 00:36:29;;;;;;;22.67;16.33;;;8.00;90.80;;;;;;6332362;28;20472;-65
2023/02/25 00:39:41;;;;;;;22.27;15.30;;;7.90;91.00;;;;;;6332796;28;20600;-66
2023/02/25 00:42:48;;;;;;;24.97;14.73;;;7.90;91.00;;;;;;6333165;28;20948;-65
2023/02/25 00:45:51;;;;;;;23.40;14.87;;;7.80;91.10;;;;;;6332886;28;20431;-65
2023/02/25 00:48:54;;;;;;;25.00;13.90;;;7.70;91.40;;;;;;6329335;28;20472;-65
2023/02/25 00:51:57;;;;;;;21.77;15.00;;;7.70;91.50;;;;;;6329320;28;20447;-65
2023/02/25 00:55:02;;;;;;;17.57;13.00;;;7.70;91.70;;;;;;6329048;28;20463;-65
2023/02/25 00:58:07;;;;;;;22.83;14.10;;;7.70;91.70;;;;;;6324475;28;20479;-65
2023/02/25 01:01:17;;;;;;;23.67;15.20;;;7.70;91.70;;;;;;6328304;28;20958;-65
2023/02/25 01:04:21;;;;;;;18.80;13.30;;;7.70;91.90;;;;;;6328979;28;20486;-65
2023/02/25 01:07:24;;;;;;;20.90;14.77;;;7.60;92.10;;;;;;6328632;28;20472;-65
2023/02/25 01:10:28;;;;;;;18.50;13.90;;;7.60;92.40;;;;;;6328418;28;20480;-65
2023/02/25 01:13:33;;;;;;;29.90;15.17;;;7.60;92.40;;;;;;6328863;28;20464;-65
2023/02/25 01:16:37;;;;;;;19.00;14.07;;;7.60;92.60;;;;;;6328173;28;20978;-65
2023/02/25 01:19:40;;;;;;;23.40;15.67;;;7.60;92.40;;;;;;6328858;28;20472;-65
2023/02/25 01:22:43;;;;;;;21.03;13.90;;;7.40;92.70;;;;;;6328343;28;20471;-65
2023/02/25 01:25:46;;;;;;;22.83;12.50;;;7.20;93.30;;;;;;6328082;28;20472;-65
2023/02/25 01:28:51;;;;;;;24.57;13.37;;;7.10;93.70;;;;;;6328116;28;20468;-65
2023/02/25 01:31:56;;;;;;;20.00;13.50;;;7.10;94.00;;;;;;6327750;28;20465;-65
2023/02/25 01:35:00;;;;;;;18.87;12.97;;;7.20;94.30;;;;;;6327506;28;20606;-65
2023/02/25 01:38:03;;;;;;;22.43;12.50;;;7.10;94.10;;;;;;6328132;28;20460;-65
2023/02/25 01:41:06;;;;;;;20.97;12.73;;;7.10;94.20;;;;;;6327528;28;20475;-65
2023/02/25 01:44:14;;;;;;;20.20;12.50;;;6.90;94.60;;;;;;6327634;28;20476;-65
2023/02/25 01:47:20;;;;;;;17.37;12.93;;;6.90;95.30;;;;;;6327304;28;20483;-65
2023/02/25 01:50:28;;;;;;;28.37;14.97;;;6.90;95.80;;;;;;6327552;28;20479;-65
2023/02/25 01:53:38;;;;;;;18.97;12.50;;;6.90;95.80;;;;;;6327505;28;20468;-65
2023/02/25 01:56:44;;;;;;;19.43;13.50;;;6.90;96.00;;;;;;6327572;28;20473;-65
2023/02/25 01:59:51;;;;;;;24.77;13.80;;;6.80;96.30;;;;;;6327321;28;20944;-65
2023/02/25 02:02:56;;;;;;;23.50;13.23;;;6.90;96.70;;;;;;6327231;28;20476;-65
2023/02/25 02:06:07;;;;;;;19.13;12.30;;;6.90;96.80;;;;;;6327094;28;20473;-65
2023/02/25 02:09:13;;;;;;;21.77;13.80;;;6.90;97.00;;;;;;6326918;28;20815;-64
2023/02/25 02:12:16;;;;;;;23.70;14.13;;;7.00;97.00;;;;;;6326593;28;20469;-65
2023/02/25 02:15:21;;;;;;;21.30;12.57;;;7.00;96.90;;;;;;6326810;28;20468;-64
2023/02/25 02:18:26;;;;;;;21.17;13.17;;;7.10;96.90;;;;;;6326559;28;20479;-64
2023/02/25 02:21:49;;;;;;;24.53;12.17;;;7.10;97.20;;;;;;6327198;28;20476;-65
2023/02/25 02:25:35;;;;;;;16.37;11.53;;;7.10;97.30;;;;;;6326964;28;20476;-65
2023/02/25 02:29:10;;;;;;;20.93;11.73;;;7.00;97.90;;;;;;6336396;28;20472;-65
2023/02/25 02:32:22;;;;;;;18.70;11.90;;;7.20;97.80;;;;;;6332014;28;20460;-65
2023/02/25 02:35:35;;;;;;;24.73;12.40;;;7.30;97.70;;;;;;6326851;28;20555;-65
2023/02/25 02:38:45;;;;;;;20.83;12.60;;;7.40;97.40;;;;;;6326421;28;20522;-65
2023/02/25 02:41:57;;;;;;;17.70;12.93;;;7.40;97.10;;;;;;6326138;28;20473;-65
2023/02/25 02:45:07;;;;;;;19.47;11.47;;;7.50;96.70;;;;;;6326717;28;20468;-64
2023/02/25 02:48:17;;;;;;;23.10;11.87;;;7.50;96.60;;;;;;6325445;28;20479;-64
2023/02/25 02:51:24;;;;;;;15.40;11.30;;;7.60;96.80;;;;;;6326104;28;20473;-65
2023/02/25 02:54:32;;;;;;;18.73;11.40;;;7.80;96.40;;;;;;6325696;28;20483;-65
2023/02/25 02:57:40;;;;;;;18.67;11.00;;;7.90;96.20;;;;;;6326298;28;20472;-65
2023/02/25 03:00:48;;;;;;;16.43;10.60;;;8.00;96.00;;;;;;6326575;28;20461;-65
2023/02/25 03:03:58;;;;;;;19.30;10.63;;;8.10;95.80;;;;;;6325833;28;20547;-65
2023/02/25 03:07:05;;;;;;;16.03;10.20;;;8.10;95.50;;;;;;6325905;28;20448;-65
2023/02/25 03:10:15;;;;;;;19.10;11.47;;;8.20;95.40;;;;;;6325876;28;20468;-65
2023/02/25 03:13:18;;;;;;;16.63;10.87;;;8.20;95.20;;;;;;6325542;28;20473;-65
2023/02/25 03:16:26;;;;;;;16.70;10.90;;;8.20;95.30;;;;;;6325621;28;20475;-65
2023/02/25 03:19:37;;;;;;;18.73;11.00;;;8.30;95.30;;;;;;6325649;28;20474;-65
2023/02/25 03:22:44;;;;;;;15.10;10.90;;;8.30;95.20;;;;;;6325462;28;20486;-65
2023/02/25 03:25:51;;;;;;;19.37;11.83;;;8.30;95.20;;;;;;6325179;28;20551;-65
2023/02/25 03:28:55;;;;;;;22.00;12.20;;;8.40;94.90;;;;;;6299929;28;20995;-65
2023/02/25 03:32:02;;;;;;;17.40;12.77;;;8.40;94.70;;;;;;6299845;28;20480;-66
2023/02/25 03:35:10;;;;;;;14.17;11.40;;;8.40;94.40;;;;;;6299609;28;20527;-65
2023/02/25 03:38:25;;;;;;;16.23;11.90;;;8.50;94.30;;;;;;6299626;28;20821;-64
2023/02/25 03:41:34;;;;;;;16.10;11.10;;;8.50;94.30;;;;;;6300063;28;20470;-65
2023/02/25 03:44:42;;;;;;;20.87;11.83;;;8.60;94.10;;;;;;6299819;28;20465;-65
2023/02/25 03:47:45;;;;;;;17.80;11.50;;;8.60;94.00;;;;;;6300062;28;21007;-65
2023/02/25 03:50:54;;;;;;;18.50;11.43;;;8.60;93.90;;;;;;6299543;28;20481;-65
2023/02/25 03:53:57;;;;;;;15.93;11.97;;;8.70;93.80;;;;;;6299705;28;20469;-65
2023/02/25 03:57:02;;;;;;;17.43;11.20;;;8.70;93.70;;;;;;6299673;28;20472;-65
2023/02/25 04:00:14;;;;;;;17.33;9.20;;;8.70;93.70;;;;;;6298973;28;20468;-65
2023/02/25 04:03:17;;;;;;;14.57;8.17;;;8.70;93.60;;;;;;6299205;28;20831;-65
2023/02/25 04:06:23;;;;;;;11.50;8.90;;;8.80;93.60;;;;;;6299493;28;20952;-65
2023/02/25 04:09:27;;;;;;;11.43;8.47;;;8.90;93.40;;;;;;6301396;28;20495;-65
2023/02/25 04:12:30;;;;;;;11.13;6.80;;;8.90;93.20;;;;;;6310408;28;20476;-65
2023/02/25 04:15:34;;;;;;;7.90;6.00;;;9.00;93.00;;;;;;6326826;28;20487;-65
2023/02/25 04:18:37;;;;;;;8.37;4.87;;;9.10;92.80;;;;;;6325743;28;21082;-65
2023/02/25 04:21:41;;;;;;;5.70;4.20;;;9.20;92.60;;;;;;6324455;28;20472;-65
2023/02/25 04:24:45;;;;;;;7.30;4.10;;;9.20;92.30;;;;;;6324644;28;20476;-65
2023/02/25 04:27:48;;;;;;;3.83;2.63;;;9.40;92.30;;;;;;6324386;28;20451;-65
2023/02/25 04:30:51;;;;;;;4.30;2.90;;;9.40;91.90;;;;;;6325062;28;20467;-65
2023/02/25 04:33:56;;;;;;;3.00;2.20;;;9.50;91.50;;;;;;6335179;28;20742;-65
2023/02/25 04:37:03;;;;;;;3.60;2.27;;;9.50;91.30;;;;;;6327406;28;20425;-65
2023/02/25 04:40:12;;;;;;;7.10;1.97;;;9.60;91.20;;;;;;6324453;28;20478;-65
2023/02/25 04:43:15;;;;;;;2.50;1.60;;;9.50;90.70;;;;;;6327898;28;20499;-65
2023/02/25 04:46:18;;;;;;;1.40;1.30;;;9.60;90.50;;;;;;6326723;28;20479;-65
2023/02/25 04:49:22;;;;;;;1.37;1.20;;;9.60;90.00;;;;;;6326784;28;20476;-66
2023/02/25 04:52:27;;;;;;;1.57;1.47;;;9.60;89.80;;;;;;6325167;28;20460;-65
2023/02/25 04:55:31;;;;;;;3.67;1.30;;;9.60;89.10;;;;;;6324693;28;20473;-65
2023/02/25 04:58:35;;;;;;;3.83;1.20;;;9.60;89.00;;;;;;6324777;28;20468;-65
2023/02/25 05:01:39;;;;;;;4.97;1.13;;;9.60;89.20;;;;;;6325221;28;20480;-65
2023/02/25 05:04:42;;;;;;;1.90;1.20;;;9.60;89.00;;;;;;6324926;28;20483;-65
2023/02/25 05:07:46;;;;;;;1.13;1.07;;;9.60;88.10;;;;;;6324909;28;20475;-65
2023/02/25 05:10:50;;;;;;;1.10;0.83;;;9.60;87.90;;;;;;6326060;28;20471;-65
2023/02/25 05:13:54;;;;;;;1.33;0.83;;;9.60;86.40;;;;;;6329195;28;20563;-65
2023/02/25 05:16:58;;;;;;;0.57;0.57;;;9.60;85.60;;;;;;6319726;28;20478;-65
2023/02/25 05:20:01;;;;;;;0.80;0.80;;;9.50;85.20;;;;;;6328885;28;20479;-65
2023/02/25 05:23:06;;;;;;;0.70;0.70;;;9.50;85.50;;;;;;6329174;28;20475;-65
2023/02/25 05:26:09;;;;;;;0.63;0.63;;;9.50;86.20;;;;;;6328704;28;20483;-66
2023/02/25 05:29:13;;;;;;;1.73;0.60;;;9.40;86.20;;;;;;6328824;28;20463;-65
2023/02/25 05:32:16;;;;;;;1.77;0.80;;;9.30;87.40;;;;;;6328703;28;21017;-65
2023/02/25 05:35:20;;;;;;;1.07;0.73;;;9.30;88.60;;;;;;6328694;28;20479;-65
2023/02/25 05:38:24;;;;;;;0.80;0.60;;;9.20;89.60;;;;;;6328802;28;20475;-65
2023/02/25 05:41:28;;;;;;;0.70;0.60;;;9.10;90.60;;;;;;6328404;28;20461;-65
2023/02/25 05:44:31;;;;;;;1.70;0.70;;;9.00;91.60;;;;;;6328677;28;20468;-65
2023/02/25 05:47:34;;;;;;;0.60;0.60;;;8.80;91.90;;;;;;6328226;28;20464;-65
2023/02/25 05:50:42;;;;;;;0.90;0.50;;;8.70;92.60;;;;;;6328232;28;20689;-66
2023/02/25 05:53:48;;;;;;;1.47;0.77;;;8.60;92.80;;;;;;6328564;28;20609;-66
2023/02/25 05:56:51;;;;;;;0.60;0.60;;;8.60;93.40;;;;;;6328268;28;20468;-65
2023/02/25 05:59:55;;;;;;;0.73;0.60;;;8.60;93.30;;;;;;6328238;28;21242;-65
2023/02/25 06:02:58;;;;;;;1.73;0.90;;;8.60;93.80;;;;;;6328124;28;20499;-66
2023/02/25 06:06:01;;;;;;;0.87;0.87;;;8.50;93.20;;;;;;6327955;28;20476;-65
2023/02/25 06:09:05;;;;;;;2.20;1.43;;;8.60;93.00;;;;;;6327990;28;20472;-65
2023/02/25 06:12:09;;;;;;;1.37;0.93;;;8.60;93.10;;;;;;6328107;28;20526;-65
2023/02/25 06:15:13;;;;;;;1.50;0.90;;;8.50;92.30;;;;;;6302940;28;20499;-65
2023/02/25 06:18:17;;;;;;;1.00;0.63;;;8.50;92.10;;;;;;6302754;28;20818;-65
2023/02/25 06:21:20;;;;;;;1.60;0.80;;;8.50;92.10;;;;;;6297686;28;20484;-65
2023/02/25 06:24:25;;;;;;;0.73;0.70;;;8.60;91.90;;;;;;6301614;28;20496;-66
2023/02/25 06:27:28;;;;;;;1.60;1.50;;;8.60;91.50;;;;;;6316722;28;20461;-66
2023/02/25 06:30:32;;;;;;;1.00;0.80;;;8.60;91.30;;;;;;6334743;28;20511;-66
2023/02/25 06:33:35;;;;;;;1.97;1.20;;;8.70;90.80;;;;;;6327829;28;20962;-66
2023/02/25 06:36:38;;;;;;;0.70;0.70;;;8.70;91.00;;;;;;6328633;28;20472;-65
2023/02/25 06:39:43;;;;;;;1.20;1.10;;;8.70;90.10;;;;;;6335701;28;20479;-65
2023/02/25 06:42:46;;;;;;;1.90;1.37;;;8.70;90.20;;;;;;6329266;28;20471;-65
2023/02/25 06:45:49;;;;;;;1.00;0.90;;;8.70;89.50;;;;;;6326836;28;20489;-65
2023/02/25 06:48:53;;;;;;;0.70;0.70;;;8.70;88.90;;;;;;6327201;28;20542;-65
2023/02/25 06:51:56;;;;;;;0.70;0.70;;;8.70;88.10;;;;;;6326974;28;20436;-64
2023/02/25 06:55:00;;;;;;;3.53;2.30;;;8.70;88.00;;;;;;6327285;28;20881;-64
2023/02/25 06:58:04;;;;;;;2.67;1.93;;;8.80;87.80;;;;;;6326555;28;20804;-65
2023/02/25 07:01:08;;;;;;;1.40;1.30;;;8.80;88.20;;;;;;6327239;28;20482;-65
2023/02/25 07:04:15;;;;;;;1.30;1.17;;;8.90;88.50;;;;;;6326516;28;20464;-65
2023/02/25 07:07:19;;;;;;;1.10;0.70;;;8.90;87.10;;;;;;6327185;28;20468;-65
2023/02/25 07:10:23;;;;;;;0.60;0.60;;;9.00;86.40;;;;;;6326986;28;20480;-66
2023/02/25 07:13:26;;;;;;;0.70;0.70;;;9.00;85.20;;;;;;6326331;27;20464;-65
2023/02/25 07:16:30;;;;;;;1.13;0.77;;;9.10;85.00;;;;;;6326433;28;20823;-65
2023/02/25 07:19:33;;;;;;;1.13;0.90;;;9.10;84.90;;;;;;6325733;28;20479;-66
2023/02/25 07:22:36;;;;;;;1.63;1.13;;;9.10;83.40;;;;;;6326262;28;20475;-66
2023/02/25 07:25:41;;;;;;;1.37;0.70;;;9.10;83.70;;;;;;6320950;28;20488;-65
2023/02/25 07:28:44;;;;;;;0.73;0.73;;;9.10;84.20;;;;;;6326146;28;20505;-66
2023/02/25 07:31:47;;;;;;;0.70;0.70;;;9.20;84.30;;;;;;6325485;28;20803;-66
2023/02/25 07:34:50;;;;;;;1.33;1.23;;;9.30;85.30;;;;;;6325622;28;20464;-66
2023/02/25 07:37:54;;;;;;;1.50;1.37;;;9.40;83.20;;;;;;6325631;28;20464;-66
2023/02/25 07:41:04;;;;;;;0.80;0.73;;;9.60;82.70;;;;;;6325602;28;20788;-65
2023/02/25 07:44:08;;;;;;;0.80;0.63;;;9.90;80.70;;;;;;6326539;28;20494;-66
2023/02/25 07:47:11;;;;;;;0.60;0.60;;;10.10;78.30;;;;;;6326162;28;20964;-65
2023/02/25 07:50:14;;;;;;;0.60;0.60;;;10.20;74.80;;;;;;6325691;28;20473;-66
2023/02/25 07:53:20;;;;;;;0.77;0.60;;;10.20;73.20;;;;;;6325340;28;20468;-66
2023/02/25 07:56:27;;;;;;;0.80;0.80;;;10.20;74.00;;;;;;6325461;28;20821;-66
2023/02/25 07:59:32;;;;;;;1.43;1.23;;;10.20;74.70;;;;;;6326617;28;20480;-65
2023/02/25 08:02:35;;;;;;;1.30;1.20;;;10.10;76.60;;;;;;6326410;28;20464;-66
2023/02/25 08:05:39;;;;;;;1.40;1.27;;;10.10;77.50;;;;;;6325116;28;20808;-67
2023/02/25 08:08:42;;;;;;;1.20;1.10;;;10.20;78.10;;;;;;6325167;28;20845;-65
2023/02/25 08:11:46;;;;;;;2.47;1.20;;;10.30;78.50;;;;;;6325028;28;20487;-67
2023/02/25 08:14:50;;;;;;;1.50;1.40;;;10.30;78.30;;;;;;6325376;28;20479;-65
2023/02/25 08:17:54;;;;;;;1.90;1.20;;;10.40;77.50;;;;;;6327656;28;20495;-65
2023/02/25 08:20:58;;;;;;;1.53;1.43;;;10.50;77.50;;;;;;6326878;28;20486;-64
2023/02/25 08:24:05;;;;;;;2.40;1.07;;;10.70;77.90;;;;;;6325151;28;20765;-66
2023/02/25 08:27:09;;;;;;;1.40;1.13;;;10.80;75.30;;;;;;6325121;28;20464;-65
2023/02/25 08:30:14;;;;;;;2.50;1.33;;;11.00;76.20;;;;;;6324262;28;20469;-65
2023/02/25 08:33:17;;;;;;;3.30;2.00;;;11.00;75.90;;;;;;6324408;28;20479;-66
2023/02/25 08:36:22;;;;;;;2.00;1.90;;;11.10;76.60;;;;;;6323967;28;20494;-65
2023/02/25 08:39:28;;;;;;;2.60;2.17;;;11.10;76.70;;;;;;6322551;28;20983;-65
2023/02/25 08:42:32;;;;;;;3.03;2.47;;;11.00;77.90;;;;;;6325499;28;20464;-65
2023/02/25 08:45:37;;;;;;;1.47;1.37;;;11.10;78.20;;;;;;6336903;28;20479;-65
2023/02/25 08:48:40;;;;;;;3.37;1.50;;;11.30;76.10;;;;;;6331472;28;20535;-65
2023/02/25 08:51:43;;;;;;;2.20;1.30;;;11.60;77.20;;;;;;6328864;28;20482;-65
2023/02/25 08:54:47;;;;;;;1.73;1.07;;;12.40;75.70;;;;;;6329296;28;20444;-66
2023/02/25 08:57:51;;;;;;;1.73;1.40;;;14.10;71.30;;;;;;6328757;28;20451;-66
2023/02/25 09:00:54;;;;;;;1.13;1.00;;;16.60;62.70;;;;;;6326359;28;20545;-65
2023/02/25 09:03:58;;;;;;;2.03;1.13;;;17.60;55.00;;;;;;6328447;28;20440;-66
2023/02/25 09:07:02;;;;;;;2.60;1.30;;;17.30;53.00;;;;;;6328398;28;20432;-65
2023/02/25 09:10:08;;;;;;;1.83;1.00;;;16.60;54.50;;;;;;6327218;28;20452;-66
2023/02/25 09:13:13;;;;;;;1.87;1.30;;;16.10;55.10;;;;;;6328130;28;20456;-65
2023/02/25 09:16:16;;;;;;;1.60;1.07;;;16.60;53.70;;;;;;6325347;28;20475;-65
2023/02/25 09:19:20;;;;;;;3.33;1.23;;;17.50;51.90;;;;;;6328374;28;20468;-66
2023/02/25 09:22:23;;;;;;;1.30;1.00;;;18.90;49.80;;;;;;6327571;28;20222;-65
2023/02/25 09:25:28;;;;;;;1.60;1.13;;;21.80;45.20;;;;;;6327411;28;20222;-66
2023/02/25 09:28:33;;;;;;;1.63;1.20;;;25.90;37.00;;;;;;6324495;28;20218;-65
2023/02/25 09:31:38;;;;;;;1.40;1.07;;;29.60;28.20;;;;;;6328571;28;20229;-67
2023/02/25 09:34:41;;;;;;;1.20;1.00;;;32.50;22.90;;;;;;6323679;28;20358;-66
2023/02/25 09:37:45;;;;;;;2.08;1.17;;;35.10;19.90;;;;;;6329929;28;20531;-67
2023/02/25 09:40:49;;;;;;;1.20;1.10;;;37.40;17.60;;;;;;6331530;28;20257;-67
2023/02/25 09:44:02;;;;;;;2.55;0.80;;;38.80;15.20;;;;;;6328501;28;20581;-66
2023/02/25 09:47:13;;;;;;;1.90;0.68;;;38.40;13.60;;;;;;6328021;28;20231;-66
2023/02/25 09:50:21;;;;;;;1.17;0.70;;;38.90;12.70;;;;;;6328531;28;20243;-66
2023/02/25 09:53:31;;;;;;;1.67;0.80;;;39.40;12.50;;;;;;6327727;28;20238;-67
2023/02/25 09:56:35;;;;;;;1.40;0.90;;;39.90;11.60;;;;;;6327487;28;20247;-67
2023/02/25 09:59:40;;;;;;;1.75;0.60;;;39.80;11.00;;;;;;6327328;28;20240;-67
2023/02/25 10:02:51;;;;;;;2.72;0.88;;;40.60;10.50;;;;;;6327405;28;20293;-67
2023/02/25 10:05:59;;;;;;;1.10;0.50;;;40.70;9.90;;;;;;6328475;28;20240;-67
2023/02/25 10:09:13;;;;;;;1.45;1.10;;;41.30;9.70;;;;;;6327472;28;20247;-67
2023/02/25 10:12:27;;;;;;;2.08;1.85;;;42.00;10.50;;;;;;6327467;28;20552;-68
2023/02/25 10:15:43;;;;;;;2.35;1.70;;;42.30;11.20;;;;;;6327870;28;20227;-69
2023/02/25 10:19:04;;;;;;;3.05;1.20;;;40.50;11.60;;;;;;6326994;28;20731;-68
2023/02/25 10:22:25;;;;;;;2.85;1.48;;;40.90;10.90;;;;;;6326956;28;20229;-67
2023/02/25 10:25:31;;;;;;;1.92;1.00;;;42.40;10.50;;;;;;6326691;28;20680;-68
2023/02/25 10:28:36;;;;;;;2.00;0.90;;;42.90;9.20;;;;;;6326890;28;20531;-68
2023/02/25 10:31:44;;;;;;;2.15;0.73;;;44.10;8.70;;;;;;6326735;28;20227;-68
2023/02/25 10:34:50;;;;;;;1.60;0.90;;;44.30;7.80;;;;;;6327169;28;20313;-68
2023/02/25 10:37:53;;;;;;;1.20;0.43;;;45.40;7.60;;;;;;6327171;28;20239;-67
2023/02/25 10:40:58;;;;;;;0.80;0.70;;;46.00;7.30;;;;;;6327153;28;20571;-68
2023/02/25 10:44:02;;;;;;;1.25;0.90;;;46.00;7.00;;;;;;6327083;28;20232;-67
2023/02/25 10:47:10;;;;;;;1.23;0.80;;;47.10;6.90;;;;;;6326818;28;20226;-68
2023/02/25 10:50:17;;;;;;;1.15;1.00;;;46.60;6.40;;;;;;6328615;28;20601;-67
2023/02/25 10:53:20;;;;;;;1.23;0.80;;;46.80;6.20;;;;;;6327738;28;20320;-68
2023/02/25 10:56:33;;;;;;;1.85;0.80;;;47.10;6.30;;;;;;6327098;28;20660;-69
2023/02/25 10:59:38;;;;;;;0.90;0.73;;;47.40;6.10;;;;;;6326512;28;20241;-68
2023/02/25 11:02:43;;;;;;;1.05;0.65;;;48.00;6.00;;;;;;6326562;28;20236;-68
2023/02/25 11:05:47;;;;;;;1.73;0.70;;;48.30;5.40;;;;;;6326403;28;20563;-67
2023/02/25 11:08:51;;;;;;;1.45;0.60;;;48.40;5.20;;;;;;6326032;28;20515;-67
2023/02/25 11:11:56;;;;;;;0.80;0.60;;;48.90;5.00;;;;;;6326258;28;20230;-68
2023/02/25 11:15:18;;;;;;;1.13;0.50;;;49.90;4.60;;;;;;6326353;28;20225;-68
2023/02/25 11:18:27;;;;;;;0.93;0.50;;;50.60;4.10;;;;;;6325845;28;20244;-68
2023/02/25 11:21:34;;;;;;;2.08;0.40;;;50.90;4.00;;;;;;6325330;28;20233;-68
2023/02/25 11:24:41;;;;;;;1.13;0.52;;;49.70;3.40;;;;;;6325170;28;20247;-68
2023/02/25 11:27:52;;;;;;;1.38;0.60;;;47.70;3.50;;;;;;6325615;28;20225;-67
2023/02/25 11:31:05;;;;;;;0.70;0.55;;;46.70;3.80;;;;;;6300544;28;20688;-68
2023/02/25 11:34:19;;;;;;;0.60;0.38;;;45.80;4.00;;;;;;6300617;28;20222;-68
2023/02/25 11:37:36;;;;;;;0.82;0.60;;;45.40;4.40;;;;;;6300341;28;20230;-68
2023/02/25 11:40:43;;;;;;;0.70;0.40;;;45.50;4.40;;;;;;6299815;28;20325;-68
2023/02/25 11:43:47;;;;;;;3.03;0.65;;;46.20;4.40;;;;;;6291351;28;20241;-69
2023/02/25 11:46:58;;;;;;;1.90;0.70;;;47.10;4.30;;;;;;6300071;28;20229;-68
2023/02/25 11:50:26;;;;;;;0.90;0.40;;;46.50;3.80;;;;;;6300816;28;20238;-68
2023/02/25 11:53:41;;;;;;;1.10;0.60;;;44.80;4.40;;;;;;6300267;28;20547;-69
2023/02/25 11:56:49;;;;;;;0.80;0.50;;;44.00;4.50;;;;;;6300545;28;20234;-68
2023/02/25 12:00:03;;;;;;;0.60;0.35;;;43.90;4.80;;;;;;6299245;28;20231;-69
2023/02/25 12:03:29;;;;;;;1.80;0.60;;;44.40;5.00;;;;;;6300188;28;20233;-68
2023/02/25 12:06:50;;;;;;;2.05;0.45;;;45.90;4.70;;;;;;6298928;28;20233;-68
2023/02/25 12:10:23;;;;;;;1.40;0.40;;;45.80;4.30;;;;;;6301814;28;20219;-68
2023/02/25 12:14:02;;;;;;;1.55;0.43;;;43.70;4.60;;;;;;6300995;28;20225;-69
2023/02/25 12:17:52;;;;;;;1.00;0.68;;;39.60;6.10;;;;;;6297840;28;20228;-67
2023/02/25 12:21:34;;;;;;;1.10;0.50;;;36.00;7.60;;;;;;6300277;28;20222;-68
2023/02/25 12:24:52;;;;;;;0.80;0.35;;;32.00;9.50;;;;;;6304144;28;20243;-68
2023/02/25 12:28:23;;;;;;;1.30;0.40;;;30.00;11.20;;;;;;6304765;28;20228;-68
2023/02/25 12:31:50;;;;;;;0.90;0.40;;;29.00;11.60;;;;;;6308878;28;20232;-67
2023/02/25 12:35:16;;;;;;;0.93;0.50;;;28.80;12.30;;;;;;6296649;28;20306;-67
2023/02/25 12:38:44;;;;;;;0.83;0.40;;;29.10;12.60;;;;;;6300871;28;20223;-67
2023/02/25 12:41:57;;;;;;;3.53;0.87;;;29.30;12.10;;;;;;6295362;28;20690;-68
2023/02/25 12:45:24;;;;;;;0.70;0.30;;;27.50;12.80;;;;;;6304153;28;20222;-67
2023/02/25 12:49:02;;;;;;;2.50;0.60;;;26.00;14.30;;;;;;6293342;28;20222;-66
2023/02/25 12:52:34;;;;;;;1.00;0.30;;;25.20;15.00;;;;;;6302819;28;20203;-67
2023/02/25 12:55:57;;;;;;;1.00;0.50;;;24.70;15.70;;;;;;6302442;28;20697;-67
2023/02/25 12:59:22;;;;;;;5.40;4.27;;;25.00;15.50;;;;;;6302773;28;20226;-67
2023/02/25 13:02:42;;;;;;;0.80;0.40;;;25.40;15.10;;;;;;6303069;28;20233;-68
2023/02/25 13:06:06;;;;;;;0.73;0.50;;;26.00;14.90;;;;;;6302429;28;20218;-68
2023/02/25 13:09:24;;;;;;;0.70;0.30;;;25.70;15.10;;;;;;6302841;28;20233;-68
2023/02/25 13:13:02;;;;;;;1.80;0.47;;;26.50;14.40;;;;;;6302401;28;20302;-67
2023/02/25 13:16:18;;;;;;;1.70;0.40;;;26.40;14.30;;;;;;6270547;28;20218;-67
2023/02/25 13:19:54;;;;;;;1.17;0.80;;;25.70;15.10;;;;;;6302724;28;20292;-67
2023/02/25 13:23:12;;;;;;;1.93;0.50;;;26.90;14.60;;;;;;6301068;28;20218;-68
2023/02/25 13:26:44;;;;;;;0.60;0.27;;;28.30;13.80;;;;;;6301548;28;20431;-68
2023/02/25 13:30:13;;;;;;;0.60;0.40;;;27.20;13.50;;;;;;6295786;28;20253;-67
2023/02/25 13:33:50;;;;;;;1.00;0.60;;;25.20;15.00;;;;;;6298204;28;20226;-67
2023/02/25 13:37:08;;;;;;;0.97;0.37;;;23.70;16.30;;;;;;6302722;28;20219;-67
2023/02/25 13:40:32;;;;;;;1.53;0.90;;;22.20;17.30;;;;;;6302838;28;20376;-66
2023/02/25 13:43:53;;;;;;;1.60;0.67;;;21.00;18.40;;;;;;6302766;28;20231;-67
2023/02/25 13:47:12;;;;;;;0.90;0.60;;;19.90;19.60;;;;;;6302497;28;20518;-67
2023/02/25 13:50:45;;;;;;;1.00;0.60;;;19.40;20.20;;;;;;6302291;28;20231;-65
2023/02/25 13:54:02;;;;;;;1.37;0.40;;;19.00;20.80;;;;;;6291167;28;20241;-66
2023/02/25 13:57:17;;;;;;;0.60;0.30;;;18.10;21.40;;;;;;6291221;28;20240;-66
2023/02/25 14:00:47;;;;;;;0.67;0.33;;;17.40;21.90;;;;;;6322688;28;20294;-67
2023/02/25 14:04:22;;;;;;;0.70;0.40;;;16.80;22.70;;;;;;6302148;28;20600;-66
2023/02/25 14:07:41;;;;;;;0.60;0.40;;;16.40;23.60;;;;;;6293260;28;20611;-67
2023/02/25 14:11:00;;;;;;;1.33;0.70;;;16.10;23.60;;;;;;6281202;28;20462;-66
2023/02/25 14:14:38;;;;;;;0.80;0.50;;;16.00;24.10;;;;;;6292475;28;20469;-66
2023/02/25 14:18:22;;;;;;;0.50;0.40;;;15.80;24.60;;;;;;6294971;28;20489;-67
2023/02/25 14:21:43;;;;;;;1.13;0.80;;;15.40;24.90;;;;;;6315955;28;20465;-67
2023/02/25 14:24:56;;;;;;;1.53;0.53;;;15.10;25.10;;;;;;6326778;28;20480;-68
2023/02/25 14:28:10;;;;;;;0.70;0.37;;;14.90;25.30;;;;;;6326076;28;20437;-65
2023/02/25 14:31:21;;;;;;;0.60;0.40;;;14.70;25.20;;;;;;6322733;27;20469;-66
2023/02/25 14:34:44;;;;;;;0.90;0.57;;;14.50;25.80;;;;;;6300171;28;20480;-65
2023/02/25 14:37:59;;;;;;;0.70;0.53;;;14.40;26.10;;;;;;6301470;28;20465;-66
2023/02/25 14:41:30;;;;;;;0.80;0.70;;;14.30;26.10;;;;;;6301643;28;20484;-66
2023/02/25 14:44:38;;;;;;;2.03;1.10;;;14.10;26.00;;;;;;6297332;28;21004;-65
2023/02/25 14:47:48;;;;;;;0.97;0.70;;;14.00;26.40;;;;;;6300203;28;20461;-65
2023/02/25 14:51:01;;;;;;;5.70;0.87;;;13.90;26.40;;;;;;6300754;28;20835;-65
2023/02/25 14:54:54;;;;;;;1.00;0.70;;;13.80;26.40;;;;;;6274045;28;20466;-65
2023/02/25 14:58:32;;;;;;;1.33;0.53;;;13.60;26.80;;;;;;6276195;28;20482;-65
2023/02/25 15:02:30;;;;;;;0.87;0.87;;;13.50;26.80;;;;;;6294837;28;20469;-65
2023/02/25 15:05:56;;;;;;;0.70;0.60;;;13.40;26.80;;;;;;6212525;28;20930;-65
2023/02/25 15:09:33;;;;;;;0.70;0.60;;;13.20;27.20;;;;;;6224808;28;20477;-66
2023/02/25 15:12:53;;;;;;;1.33;0.60;;;13.10;26.90;;;;;;6323977;28;20513;-65
2023/02/25 15:16:25;;;;;;;0.80;0.60;;;13.10;27.30;;;;;;6301210;28;20512;-65
2023/02/25 15:19:55;;;;;;;2.53;2.00;;;13.00;27.40;;;;;;6325499;28;20468;-64
2023/02/25 15:23:06;;;;;;;2.53;1.10;;;12.90;27.30;;;;;;6326585;28;20887;-65
2023/02/25 15:26:24;;;;;;;0.80;0.70;;;12.90;27.40;;;;;;6323741;28;20468;-65
2023/02/25 15:29:55;;;;;;;0.60;0.60;;;12.90;27.60;;;;;;6325480;28;20815;-61
2023/02/25 15:33:23;;;;;;;1.03;0.60;;;12.70;27.40;;;;;;6323711;28;20471;-60
2023/02/25 15:36:42;;;;;;;1.10;0.83;;;12.60;27.40;;;;;;6321683;28;20551;-61
2023/02/25 15:39:51;;;;;;;0.63;0.63;;;12.60;27.70;;;;;;6324525;28;20483;-61
2023/02/25 15:42:57;;;;;;;0.70;0.53;;;12.60;28.00;;;;;;6298214;28;20446;-61
2023/02/25 15:46:45;;;;;;;0.87;0.67;;;12.60;28.10;;;;;;6321657;28;20433;-62
2023/02/25 15:49:52;;;;;;;1.47;0.80;;;12.40;28.20;;;;;;6248183;28;20538;-61
2023/02/25 15:52:58;;;;;;;1.93;0.60;;;12.30;28.40;;;;;;6281677;28;20798;-61
2023/02/25 15:56:30;;;;;;;0.60;0.60;;;12.20;28.20;;;;;;6275609;28;20462;-61
2023/02/25 15:59:42;;;;;;;1.93;1.80;;;12.10;28.30;;;;;;6275621;28;20783;-60
2023/02/25 16:02:57;;;;;;;1.47;0.60;;;12.00;28.40;;;;;;6300181;28;20488;-61
2023/02/25 16:06:15;;;;;;;1.03;0.67;;;11.90;28.50;;;;;;6298659;28;20469;-61
2023/02/25 16:09:22;;;;;;;0.60;0.40;;;11.80;28.80;;;;;;6299722;28;20774;-61
2023/02/25 16:12:28;;;;;;;0.70;0.70;;;11.70;29.10;;;;;;6299583;28;20469;-61
2023/02/25 16:15:36;;;;;;;1.27;0.43;;;11.70;29.10;;;;;;6299942;28;20473;-61
2023/02/25 16:18:44;;;;;;;0.60;0.60;;;11.60;29.10;;;;;;6298688;28;20888;-62
2023/02/25 16:21:54;;;;;;;2.40;0.60;;;11.60;29.10;;;;;;6298893;28;20953;-62
2023/02/25 16:25:01;;;;;;;0.83;0.53;;;11.40;29.20;;;;;;6323082;28;20569;-62
2023/02/25 16:28:14;;;;;;;0.73;0.60;;;11.30;29.70;;;;;;6299208;28;20970;-62
2023/02/25 16:31:24;;;;;;;0.93;0.67;;;11.30;29.80;;;;;;6298848;28;20550;-62
2023/02/25 16:34:34;;;;;;;0.90;0.70;;;11.30;29.90;;;;;;6299018;28;20579;-62